sensor_id;sensor_type;location;lat;lon;timestamp;P1;durP1;ratioP1;P2;durP2;ratioP2
5869;SDS011;2961;47.702;9.410;2023-05-10T00:01:00;1.10;;;1.00;;
5869;SDS011;2961;47.702;9.410;2023-05-10T00:03:27;1.23;;;1.00;;
5869;SDS011;2961;47.702;9.410;2023-05-10T00:05:54;0.70;;;0.70;;
5869;SDS011;2961;47.702;9.410;2023-05-10T00:08:21;1.30;;;0.80;;
5869;SDS011;2961;47.702;9.410;2023-05-10T00:10:48;4.97;;;0.90;;
5869;SDS011;2961;47.702;9.410;2023-05-10T00:13:16;0.80;;;0.80;;
5869;SDS011;2961;47.702;9.410;2023-05-10T00:15:43;1.10;;;1.10;;
5869;SDS011;2961;47.702;9.410;2023-05-10T00:18:10;0.63;;;0.63;;
5869;SDS011;2961;47.702;9.410;2023-05-10T00:20:36;0.80;;;0.80;;
5869;SDS011;2961;47.702;9.410;2023-05-10T00:23:03;1.00;;;1.00;;
5869;SDS011;2961;47.702;9.410;2023-05-10T00:25:30;0.80;;;0.80;;
5869;SDS011;2961;47.702;9.410;2023-05-10T00:27:57;0.97;;;0.80;;
5869;SDS011;2961;47.702;9.410;2023-05-10T00:30:27;0.70;;;0.70;;
5869;SDS011;2961;47.702;9.410;2023-05-10T00:32:54;0.60;;;0.60;;
5869;SDS011;2961;47.702;9.410;2023-05-10T00:35:21;0.57;;;0.57;;
5869;SDS011;2961;47.702;9.410;2023-05-10T00:37:48;0.53;;;0.53;;
5869;SDS011;2961;47.702;9.410;2023-05-10T00:40:14;0.87;;;0.87;;
5869;SDS011;2961;47.702;9.410;2023-05-10T00:42:41;0.70;;;0.70;;
5869;SDS011;2961;47.702;9.410;2023-05-10T00:45:08;1.60;;;0.73;;
5869;SDS011;2961;47.702;9.410;2023-05-10T00:47:37;1.97;;;0.60;;
5869;SDS011;2961;47.702;9.410;2023-05-10T00:50:04;0.40;;;0.40;;
5869;SDS011;2961;47.702;9.410;2023-05-10T00:52:32;1.70;;;0.60;;
5869;SDS011;2961;47.702;9.410;2023-05-10T00:54:59;0.80;;;0.63;;
5869;SDS011;2961;47.702;9.410;2023-05-10T00:57:28;0.97;;;0.90;;
5869;SDS011;2961;47.702;9.410;2023-05-10T00:59:55;0.40;;;0.40;;
5869;SDS011;2961;47.702;9.410;2023-05-10T01:02:23;1.83;;;0.77;;
5869;SDS011;2961;47.702;9.410;2023-05-10T01:04:51;1.90;;;0.60;;
5869;SDS011;2961;47.702;9.410;2023-05-10T01:07:19;1.23;;;0.73;;
5869;SDS011;2961;47.702;9.410;2023-05-10T01:09:46;0.53;;;0.43;;
5869;SDS011;2961;47.702;9.410;2023-05-10T01:12:13;0.70;;;0.70;;
5869;SDS011;2961;47.702;9.410;2023-05-10T01:14:40;0.77;;;0.77;;
5869;SDS011;2961;47.702;9.410;2023-05-10T01:17:07;0.60;;;0.60;;
5869;SDS011;2961;47.702;9.410;2023-05-10T01:19:36;0.50;;;0.50;;
5869;SDS011;2961;47.702;9.410;2023-05-10T01:22:06;4.93;;;0.73;;
5869;SDS011;2961;47.702;9.410;2023-05-10T01:25:02;2.17;;;0.67;;
5869;SDS011;2961;47.702;9.410;2023-05-10T01:33:50;0.70;;;0.70;;
5869;SDS011;2961;47.702;9.410;2023-05-10T01:36:24;2.03;;;0.90;;
5869;SDS011;2961;47.702;9.410;2023-05-10T01:38:58;4.03;;;0.83;;
5869;SDS011;2961;47.702;9.410;2023-05-10T01:41:30;1.23;;;0.70;;
5869;SDS011;2961;47.702;9.410;2023-05-10T01:44:09;1.37;;;0.80;;
5869;SDS011;2961;47.702;9.410;2023-05-10T01:46:43;2.60;;;0.80;;
5869;SDS011;2961;47.702;9.410;2023-05-10T01:49:19;0.70;;;0.70;;
5869;SDS011;2961;47.702;9.410;2023-05-10T01:51:50;1.20;;;0.60;;
5869;SDS011;2961;47.702;9.410;2023-05-10T01:54:20;0.83;;;0.60;;
5869;SDS011;2961;47.702;9.410;2023-05-10T01:56:50;1.60;;;0.60;;
5869;SDS011;2961;47.702;9.410;2023-05-10T01:59:22;0.80;;;0.80;;
5869;SDS011;2961;47.702;9.410;2023-05-10T02:01:51;0.60;;;0.60;;
5869;SDS011;2961;47.702;9.410;2023-05-10T02:04:21;0.80;;;0.80;;
5869;SDS011;2961;47.702;9.410;2023-05-10T02:06:49;0.90;;;0.90;;
5869;SDS011;2961;47.702;9.410;2023-05-10T02:09:19;2.00;;;0.63;;
5869;SDS011;2961;47.702;9.410;2023-05-10T02:11:47;0.70;;;0.70;;
5869;SDS011;2961;47.702;9.410;2023-05-10T02:14:15;0.80;;;0.80;;
5869;SDS011;2961;47.702;9.410;2023-05-10T02:16:44;1.63;;;0.73;;
5869;SDS011;2961;47.702;9.410;2023-05-10T02:19:12;0.70;;;0.70;;
5869;SDS011;2961;47.702;9.410;2023-05-10T02:21:42;0.70;;;0.70;;
5869;SDS011;2961;47.702;9.410;2023-05-10T02:24:10;5.53;;;1.07;;
5869;SDS011;2961;47.702;9.410;2023-05-10T02:26:37;1.90;;;0.60;;
5869;SDS011;2961;47.702;9.410;2023-05-10T02:29:05;1.57;;;0.83;;
5869;SDS011;2961;47.702;9.410;2023-05-10T02:31:33;6.20;;;0.67;;
5869;SDS011;2961;47.702;9.410;2023-05-10T02:34:01;0.80;;;0.80;;
5869;SDS011;2961;47.702;9.410;2023-05-10T02:36:28;1.90;;;0.63;;
5869;SDS011;2961;47.702;9.410;2023-05-10T02:38:57;2.30;;;0.60;;
5869;SDS011;2961;47.702;9.410;2023-05-10T02:41:27;1.47;;;1.03;;
5869;SDS011;2961;47.702;9.410;2023-05-10T02:43:55;0.63;;;0.63;;
5869;SDS011;2961;47.702;9.410;2023-05-10T02:46:25;1.73;;;0.90;;
5869;SDS011;2961;47.702;9.410;2023-05-10T02:48:52;0.97;;;0.90;;
5869;SDS011;2961;47.702;9.410;2023-05-10T02:51:19;1.27;;;0.77;;
5869;SDS011;2961;47.702;9.410;2023-05-10T02:53:50;0.93;;;0.93;;
5869;SDS011;2961;47.702;9.410;2023-05-10T02:56:23;1.13;;;1.00;;
5869;SDS011;2961;47.702;9.410;2023-05-10T02:58:54;1.70;;;0.80;;
5869;SDS011;2961;47.702;9.410;2023-05-10T03:01:21;2.60;;;1.10;;
5869;SDS011;2961;47.702;9.410;2023-05-10T03:03:48;3.30;;;0.90;;
5869;SDS011;2961;47.702;9.410;2023-05-10T03:06:15;1.70;;;1.00;;
5869;SDS011;2961;47.702;9.410;2023-05-10T03:08:42;10.60;;;1.60;;
5869;SDS011;2961;47.702;9.410;2023-05-10T03:11:16;3.13;;;1.03;;
5869;SDS011;2961;47.702;9.410;2023-05-10T03:13:56;0.97;;;0.97;;
5869;SDS011;2961;47.702;9.410;2023-05-10T03:16:34;1.00;;;1.00;;
5869;SDS011;2961;47.702;9.410;2023-05-10T03:19:09;1.10;;;1.10;;
5869;SDS011;2961;47.702;9.410;2023-05-10T03:21:42;3.20;;;1.30;;
5869;SDS011;2961;47.702;9.410;2023-05-10T03:24:13;1.10;;;1.10;;
5869;SDS011;2961;47.702;9.410;2023-05-10T03:26:42;1.80;;;0.97;;
5869;SDS011;2961;47.702;9.410;2023-05-10T03:29:10;1.33;;;1.33;;
5869;SDS011;2961;47.702;9.410;2023-05-10T03:31:39;1.30;;;1.30;;
5869;SDS011;2961;47.702;9.410;2023-05-10T03:34:05;1.27;;;1.27;;
5869;SDS011;2961;47.702;9.410;2023-05-10T03:36:32;1.80;;;1.70;;
5869;SDS011;2961;47.702;9.410;2023-05-10T03:38:59;1.70;;;1.60;;
5869;SDS011;2961;47.702;9.410;2023-05-10T03:41:26;2.30;;;1.90;;
5869;SDS011;2961;47.702;9.410;2023-05-10T03:43:54;3.80;;;1.80;;
5869;SDS011;2961;47.702;9.410;2023-05-10T03:46:21;3.90;;;1.60;;
5869;SDS011;2961;47.702;9.410;2023-05-10T03:48:48;1.30;;;1.30;;
5869;SDS011;2961;47.702;9.410;2023-05-10T03:51:15;1.97;;;1.47;;
5869;SDS011;2961;47.702;9.410;2023-05-10T03:53:41;1.80;;;1.70;;
5869;SDS011;2961;47.702;9.410;2023-05-10T03:56:08;1.50;;;1.50;;
5869;SDS011;2961;47.702;9.410;2023-05-10T03:58:35;3.90;;;1.53;;
5869;SDS011;2961;47.702;9.410;2023-05-10T04:01:03;2.10;;;1.73;;
5869;SDS011;2961;47.702;9.410;2023-05-10T04:03:30;1.23;;;1.23;;
5869;SDS011;2961;47.702;9.410;2023-05-10T04:06:00;1.30;;;1.30;;
5869;SDS011;2961;47.702;9.410;2023-05-10T04:08:27;3.90;;;1.37;;
5869;SDS011;2961;47.702;9.410;2023-05-10T04:10:54;1.77;;;1.10;;
5869;SDS011;2961;47.702;9.410;2023-05-10T04:13:21;1.73;;;1.73;;
5869;SDS011;2961;47.702;9.410;2023-05-10T04:15:47;1.70;;;1.60;;
5869;SDS011;2961;47.702;9.410;2023-05-10T04:18:15;1.53;;;1.53;;
5869;SDS011;2961;47.702;9.410;2023-05-10T04:20:42;1.30;;;1.30;;
5869;SDS011;2961;47.702;9.410;2023-05-10T04:23:09;8.77;;;2.30;;
5869;SDS011;2961;47.702;9.410;2023-05-10T04:25:36;1.80;;;1.80;;
5869;SDS011;2961;47.702;9.410;2023-05-10T04:28:03;1.80;;;1.70;;
5869;SDS011;2961;47.702;9.410;2023-05-10T04:30:30;2.07;;;1.97;;
5869;SDS011;2961;47.702;9.410;2023-05-10T04:32:56;2.03;;;1.93;;
5869;SDS011;2961;47.702;9.410;2023-05-10T04:35:25;1.77;;;1.67;;
5869;SDS011;2961;47.702;9.410;2023-05-10T04:37:52;3.70;;;2.03;;
5869;SDS011;2961;47.702;9.410;2023-05-10T04:40:18;2.70;;;1.63;;
5869;SDS011;2961;47.702;9.410;2023-05-10T04:42:46;1.73;;;1.63;;
5869;SDS011;2961;47.702;9.410;2023-05-10T04:45:12;1.43;;;1.13;;
5869;SDS011;2961;47.702;9.410;2023-05-10T04:47:40;2.03;;;1.40;;
5869;SDS011;2961;47.702;9.410;2023-05-10T04:50:07;2.23;;;1.30;;
5869;SDS011;2961;47.702;9.410;2023-05-10T04:52:35;1.10;;;1.10;;
5869;SDS011;2961;47.702;9.410;2023-05-10T04:55:02;1.20;;;1.00;;
5869;SDS011;2961;47.702;9.410;2023-05-10T04:57:29;3.37;;;1.57;;
5869;SDS011;2961;47.702;9.410;2023-05-10T04:59:56;2.60;;;2.00;;
5869;SDS011;2961;47.702;9.410;2023-05-10T05:02:23;3.00;;;1.50;;
5869;SDS011;2961;47.702;9.410;2023-05-10T05:04:50;4.93;;;1.30;;
5869;SDS011;2961;47.702;9.410;2023-05-10T05:07:17;1.67;;;1.17;;
5869;SDS011;2961;47.702;9.410;2023-05-10T05:09:45;1.37;;;1.27;;
5869;SDS011;2961;47.702;9.410;2023-05-10T05:12:12;1.17;;;1.13;;
5869;SDS011;2961;47.702;9.410;2023-05-10T05:14:39;0.70;;;0.70;;
5869;SDS011;2961;47.702;9.410;2023-05-10T05:17:06;2.53;;;1.00;;
5869;SDS011;2961;47.702;9.410;2023-05-10T05:19:33;0.97;;;0.83;;
5869;SDS011;2961;47.702;9.410;2023-05-10T05:22:00;1.87;;;1.30;;
5869;SDS011;2961;47.702;9.410;2023-05-10T05:24:27;4.43;;;1.33;;
5869;SDS011;2961;47.702;9.410;2023-05-10T05:26:55;1.40;;;1.30;;
5869;SDS011;2961;47.702;9.410;2023-05-10T05:29:22;1.80;;;1.10;;
5869;SDS011;2961;47.702;9.410;2023-05-10T05:31:49;1.67;;;1.23;;
5869;SDS011;2961;47.702;9.410;2023-05-10T05:34:15;1.20;;;1.20;;
5869;SDS011;2961;47.702;9.410;2023-05-10T05:36:42;1.27;;;1.27;;
5869;SDS011;2961;47.702;9.410;2023-05-10T05:39:09;1.00;;;1.00;;
5869;SDS011;2961;47.702;9.410;2023-05-10T05:41:35;2.20;;;1.07;;
5869;SDS011;2961;47.702;9.410;2023-05-10T05:44:04;3.03;;;1.10;;
5869;SDS011;2961;47.702;9.410;2023-05-10T05:46:30;1.30;;;1.20;;
5869;SDS011;2961;47.702;9.410;2023-05-10T05:48:57;0.87;;;0.87;;
5869;SDS011;2961;47.702;9.410;2023-05-10T05:51:24;1.93;;;0.93;;
5869;SDS011;2961;47.702;9.410;2023-05-10T05:53:51;2.00;;;0.90;;
5869;SDS011;2961;47.702;9.410;2023-05-10T05:56:18;2.20;;;1.17;;
5869;SDS011;2961;47.702;9.410;2023-05-10T05:58:49;0.90;;;0.90;;
5869;SDS011;2961;47.702;9.410;2023-05-10T06:01:17;1.00;;;1.00;;
5869;SDS011;2961;47.702;9.410;2023-05-10T06:03:44;0.90;;;0.90;;
5869;SDS011;2961;47.702;9.410;2023-05-10T06:06:11;2.03;;;1.17;;
5869;SDS011;2961;47.702;9.410;2023-05-10T06:08:38;0.90;;;0.90;;
5869;SDS011;2961;47.702;9.410;2023-05-10T06:11:05;3.07;;;1.30;;
5869;SDS011;2961;47.702;9.410;2023-05-10T06:13:31;0.53;;;0.53;;
5869;SDS011;2961;47.702;9.410;2023-05-10T06:16:00;2.63;;;0.93;;
5869;SDS011;2961;47.702;9.410;2023-05-10T06:18:28;3.30;;;1.17;;
5869;SDS011;2961;47.702;9.410;2023-05-10T06:20:55;2.37;;;0.80;;
5869;SDS011;2961;47.702;9.410;2023-05-10T06:23:22;4.43;;;0.77;;
5869;SDS011;2961;47.702;9.410;2023-05-10T06:25:50;1.60;;;0.90;;
5869;SDS011;2961;47.702;9.410;2023-05-10T06:28:17;0.80;;;0.80;;
5869;SDS011;2961;47.702;9.410;2023-05-10T06:30:44;1.00;;;1.00;;
5869;SDS011;2961;47.702;9.410;2023-05-10T06:33:11;2.07;;;0.70;;
5869;SDS011;2961;47.702;9.410;2023-05-10T06:35:39;1.10;;;1.00;;
5869;SDS011;2961;47.702;9.410;2023-05-10T06:38:05;3.70;;;1.10;;
5869;SDS011;2961;47.702;9.410;2023-05-10T06:40:32;2.50;;;0.80;;
5869;SDS011;2961;47.702;9.410;2023-05-10T06:42:59;2.10;;;0.80;;
5869;SDS011;2961;47.702;9.410;2023-05-10T06:45:26;1.90;;;0.90;;
5869;SDS011;2961;47.702;9.410;2023-05-10T06:47:52;1.00;;;0.90;;
5869;SDS011;2961;47.702;9.410;2023-05-10T06:50:19;1.17;;;1.00;;
5869;SDS011;2961;47.702;9.410;2023-05-10T06:52:47;4.90;;;1.00;;
5869;SDS011;2961;47.702;9.410;2023-05-10T06:55:14;1.47;;;0.93;;
5869;SDS011;2961;47.702;9.410;2023-05-10T06:57:41;0.90;;;0.80;;
5869;SDS011;2961;47.702;9.410;2023-05-10T07:00:08;1.07;;;0.77;;
5869;SDS011;2961;47.702;9.410;2023-05-10T07:02:35;1.00;;;1.00;;
5869;SDS011;2961;47.702;9.410;2023-05-10T07:05:02;1.13;;;1.13;;
5869;SDS011;2961;47.702;9.410;2023-05-10T07:07:29;1.13;;;1.03;;
5869;SDS011;2961;47.702;9.410;2023-05-10T07:09:57;0.83;;;0.70;;
5869;SDS011;2961;47.702;9.410;2023-05-10T07:12:24;1.80;;;0.70;;
5869;SDS011;2961;47.702;9.410;2023-05-10T07:14:51;0.97;;;0.97;;
5869;SDS011;2961;47.702;9.410;2023-05-10T07:17:18;0.97;;;0.97;;
5869;SDS011;2961;47.702;9.410;2023-05-10T07:19:45;0.73;;;0.73;;
5869;SDS011;2961;47.702;9.410;2023-05-10T07:22:11;1.70;;;1.13;;
5869;SDS011;2961;47.702;9.410;2023-05-10T07:24:38;2.10;;;0.70;;
5869;SDS011;2961;47.702;9.410;2023-05-10T07:27:06;4.77;;;0.80;;
5869;SDS011;2961;47.702;9.410;2023-05-10T07:29:34;2.23;;;0.57;;
5869;SDS011;2961;47.702;9.410;2023-05-10T07:32:00;8.27;;;1.03;;
5869;SDS011;2961;47.702;9.410;2023-05-10T07:34:27;1.37;;;1.27;;
5869;SDS011;2961;47.702;9.410;2023-05-10T07:36:55;7.73;;;1.20;;
5869;SDS011;2961;47.702;9.410;2023-05-10T07:39:22;1.13;;;0.83;;
5869;SDS011;2961;47.702;9.410;2023-05-10T07:41:49;0.67;;;0.67;;
5869;SDS011;2961;47.702;9.410;2023-05-10T07:44:17;0.70;;;0.67;;
5869;SDS011;2961;47.702;9.410;2023-05-10T07:46:45;0.77;;;0.77;;
5869;SDS011;2961;47.702;9.410;2023-05-10T07:49:12;0.67;;;0.67;;
5869;SDS011;2961;47.702;9.410;2023-05-10T07:51:39;3.87;;;1.00;;
5869;SDS011;2961;47.702;9.410;2023-05-10T07:54:06;5.00;;;0.93;;
5869;SDS011;2961;47.702;9.410;2023-05-10T07:56:32;0.87;;;0.87;;
5869;SDS011;2961;47.702;9.410;2023-05-10T07:59:00;2.00;;;0.97;;
5869;SDS011;2961;47.702;9.410;2023-05-10T08:01:30;3.50;;;0.90;;
5869;SDS011;2961;47.702;9.410;2023-05-10T08:03:58;1.00;;;0.77;;
5869;SDS011;2961;47.702;9.410;2023-05-10T08:06:25;1.60;;;0.77;;
5869;SDS011;2961;47.702;9.410;2023-05-10T08:08:54;7.50;;;1.30;;
5869;SDS011;2961;47.702;9.410;2023-05-10T08:11:21;4.40;;;0.80;;
5869;SDS011;2961;47.702;9.410;2023-05-10T08:13:49;2.10;;;1.03;;
5869;SDS011;2961;47.702;9.410;2023-05-10T08:16:17;1.80;;;1.13;;
5869;SDS011;2961;47.702;9.410;2023-05-10T08:18:45;0.63;;;0.63;;
5869;SDS011;2961;47.702;9.410;2023-05-10T08:21:14;3.97;;;1.00;;
5869;SDS011;2961;47.702;9.410;2023-05-10T08:23:41;1.47;;;0.70;;
5869;SDS011;2961;47.702;9.410;2023-05-10T08:26:08;2.20;;;0.70;;
5869;SDS011;2961;47.702;9.410;2023-05-10T08:28:35;0.63;;;0.63;;
5869;SDS011;2961;47.702;9.410;2023-05-10T08:31:02;2.90;;;0.70;;
5869;SDS011;2961;47.702;9.410;2023-05-10T08:33:29;1.27;;;0.63;;
5869;SDS011;2961;47.702;9.410;2023-05-10T08:35:57;1.57;;;0.80;;
5869;SDS011;2961;47.702;9.410;2023-05-10T08:38:24;0.60;;;0.60;;
5869;SDS011;2961;47.702;9.410;2023-05-10T08:40:50;0.70;;;0.70;;
5869;SDS011;2961;47.702;9.410;2023-05-10T08:43:21;0.83;;;0.80;;
5869;SDS011;2961;47.702;9.410;2023-05-10T08:45:52;5.70;;;0.50;;
5869;SDS011;2961;47.702;9.410;2023-05-10T08:48:20;0.43;;;0.40;;
5869;SDS011;2961;47.702;9.410;2023-05-10T08:50:49;2.53;;;0.37;;
5869;SDS011;2961;47.702;9.410;2023-05-10T08:53:21;0.50;;;0.40;;
5869;SDS011;2961;47.702;9.410;2023-05-10T08:55:50;0.27;;;0.27;;
5869;SDS011;2961;47.702;9.410;2023-05-10T08:58:17;0.40;;;0.40;;
5869;SDS011;2961;47.702;9.410;2023-05-10T09:00:45;0.60;;;0.60;;
5869;SDS011;2961;47.702;9.410;2023-05-10T09:03:14;0.70;;;0.60;;
5869;SDS011;2961;47.702;9.410;2023-05-10T09:05:41;4.73;;;0.93;;
5869;SDS011;2961;47.702;9.410;2023-05-10T09:08:09;0.70;;;0.67;;
5869;SDS011;2961;47.702;9.410;2023-05-10T09:10:39;2.00;;;0.90;;
5869;SDS011;2961;47.702;9.410;2023-05-10T09:13:08;0.50;;;0.50;;
5869;SDS011;2961;47.702;9.410;2023-05-10T09:15:37;2.13;;;0.30;;
5869;SDS011;2961;47.702;9.410;2023-05-10T09:18:04;0.47;;;0.47;;
5869;SDS011;2961;47.702;9.410;2023-05-10T09:20:31;0.50;;;0.50;;
5869;SDS011;2961;47.702;9.410;2023-05-10T09:22:57;0.60;;;0.60;;
5869;SDS011;2961;47.702;9.410;2023-05-10T09:25:24;0.70;;;0.70;;
5869;SDS011;2961;47.702;9.410;2023-05-10T09:27:52;0.90;;;0.60;;
5869;SDS011;2961;47.702;9.410;2023-05-10T09:30:23;1.80;;;0.90;;
5869;SDS011;2961;47.702;9.410;2023-05-10T09:32:51;3.07;;;0.90;;
5869;SDS011;2961;47.702;9.410;2023-05-10T09:35:19;1.30;;;0.70;;
5869;SDS011;2961;47.702;9.410;2023-05-10T09:37:48;0.60;;;0.53;;
5869;SDS011;2961;47.702;9.410;2023-05-10T09:40:16;1.80;;;0.50;;
5869;SDS011;2961;47.702;9.410;2023-05-10T09:42:50;2.13;;;0.97;;
5869;SDS011;2961;47.702;9.410;2023-05-10T09:45:19;0.70;;;0.70;;
5869;SDS011;2961;47.702;9.410;2023-05-10T09:47:47;1.03;;;0.63;;
5869;SDS011;2961;47.702;9.410;2023-05-10T09:50:14;2.40;;;0.70;;
5869;SDS011;2961;47.702;9.410;2023-05-10T09:52:50;1.27;;;0.80;;
5869;SDS011;2961;47.702;9.410;2023-05-10T09:55:19;1.43;;;0.93;;
5869;SDS011;2961;47.702;9.410;2023-05-10T09:57:47;4.30;;;0.70;;
5869;SDS011;2961;47.702;9.410;2023-05-10T10:00:17;1.50;;;0.67;;
5869;SDS011;2961;47.702;9.410;2023-05-10T10:02:46;2.10;;;1.00;;
5869;SDS011;2961;47.702;9.410;2023-05-10T10:05:14;1.53;;;0.90;;
5869;SDS011;2961;47.702;9.410;2023-05-10T10:07:41;1.30;;;1.30;;
5869;SDS011;2961;47.702;9.410;2023-05-10T10:10:08;1.77;;;0.90;;
5869;SDS011;2961;47.702;9.410;2023-05-10T10:12:39;2.20;;;1.10;;
5869;SDS011;2961;47.702;9.410;2023-05-10T10:15:07;1.00;;;0.90;;
5869;SDS011;2961;47.702;9.410;2023-05-10T10:17:36;1.03;;;1.03;;
5869;SDS011;2961;47.702;9.410;2023-05-10T10:20:05;3.20;;;1.30;;
5869;SDS011;2961;47.702;9.410;2023-05-10T10:22:33;1.70;;;1.00;;
5869;SDS011;2961;47.702;9.410;2023-05-10T10:25:00;0.70;;;0.70;;
5869;SDS011;2961;47.702;9.410;2023-05-10T10:27:28;1.63;;;1.10;;
5869;SDS011;2961;47.702;9.410;2023-05-10T10:30:07;2.80;;;0.77;;
5869;SDS011;2961;47.702;9.410;2023-05-10T10:32:47;0.73;;;0.60;;
5869;SDS011;2961;47.702;9.410;2023-05-10T10:35:26;1.90;;;0.80;;
5869;SDS011;2961;47.702;9.410;2023-05-10T10:37:55;2.50;;;1.10;;
5869;SDS011;2961;47.702;9.410;2023-05-10T10:40:22;1.50;;;0.83;;
5869;SDS011;2961;47.702;9.410;2023-05-10T10:42:50;0.73;;;0.70;;
5869;SDS011;2961;47.702;9.410;2023-05-10T10:45:18;1.03;;;0.80;;
5869;SDS011;2961;47.702;9.410;2023-05-10T10:47:48;3.37;;;1.03;;
5869;SDS011;2961;47.702;9.410;2023-05-10T10:50:19;3.53;;;1.30;;
5869;SDS011;2961;47.702;9.410;2023-05-10T10:52:46;5.73;;;1.23;;
5869;SDS011;2961;47.702;9.410;2023-05-10T10:55:14;1.10;;;1.00;;
5869;SDS011;2961;47.702;9.410;2023-05-10T10:57:47;2.77;;;1.10;;
5869;SDS011;2961;47.702;9.410;2023-05-10T11:00:23;2.77;;;0.83;;
5869;SDS011;2961;47.702;9.410;2023-05-10T11:02:53;2.93;;;1.07;;
5869;SDS011;2961;47.702;9.410;2023-05-10T11:05:23;1.57;;;0.80;;
5869;SDS011;2961;47.702;9.410;2023-05-10T11:07:51;1.47;;;0.97;;
5869;SDS011;2961;47.702;9.410;2023-05-10T11:10:19;2.10;;;1.20;;
5869;SDS011;2961;47.702;9.410;2023-05-10T11:12:52;5.37;;;1.17;;
5869;SDS011;2961;47.702;9.410;2023-05-10T11:15:28;3.20;;;0.77;;
5869;SDS011;2961;47.702;9.410;2023-05-10T11:17:57;1.80;;;0.93;;
5869;SDS011;2961;47.702;9.410;2023-05-10T11:20:26;2.00;;;1.00;;
5869;SDS011;2961;47.702;9.410;2023-05-10T11:22:59;2.70;;;0.90;;
5869;SDS011;2961;47.702;9.410;2023-05-10T11:25:40;6.27;;;1.17;;
5869;SDS011;2961;47.702;9.410;2023-05-10T11:28:09;1.83;;;1.17;;
5869;SDS011;2961;47.702;9.410;2023-05-10T11:30:36;3.90;;;0.90;;
5869;SDS011;2961;47.702;9.410;2023-05-10T11:33:05;2.63;;;1.00;;
5869;SDS011;2961;47.702;9.410;2023-05-10T11:35:36;3.93;;;1.03;;
5869;SDS011;2961;47.702;9.410;2023-05-10T11:38:05;1.80;;;1.37;;
5869;SDS011;2961;47.702;9.410;2023-05-10T11:40:32;1.10;;;0.70;;
5869;SDS011;2961;47.702;9.410;2023-05-10T11:42:59;2.77;;;0.73;;
5869;SDS011;2961;47.702;9.410;2023-05-10T11:45:26;4.00;;;0.90;;
5869;SDS011;2961;47.702;9.410;2023-05-10T11:47:54;0.70;;;0.70;;
5869;SDS011;2961;47.702;9.410;2023-05-10T11:50:22;9.63;;;1.93;;
5869;SDS011;2961;47.702;9.410;2023-05-10T11:52:51;4.43;;;1.30;;
5869;SDS011;2961;47.702;9.410;2023-05-10T11:55:18;3.00;;;2.67;;
5869;SDS011;2961;47.702;9.410;2023-05-10T11:57:45;4.53;;;2.00;;
5869;SDS011;2961;47.702;9.410;2023-05-10T12:00:12;4.43;;;1.63;;
5869;SDS011;2961;47.702;9.410;2023-05-10T12:02:40;8.70;;;1.47;;
5869;SDS011;2961;47.702;9.410;2023-05-10T12:05:07;4.30;;;1.23;;
5869;SDS011;2961;47.702;9.410;2023-05-10T12:07:36;3.90;;;2.90;;
5869;SDS011;2961;47.702;9.410;2023-05-10T12:10:06;5.90;;;1.27;;
5869;SDS011;2961;47.702;9.410;2023-05-10T12:12:38;3.20;;;1.70;;
5869;SDS011;2961;47.702;9.410;2023-05-10T12:15:08;5.03;;;1.50;;
5869;SDS011;2961;47.702;9.410;2023-05-10T12:17:37;1.23;;;0.90;;
5869;SDS011;2961;47.702;9.410;2023-05-10T12:20:14;3.37;;;0.73;;
5869;SDS011;2961;47.702;9.410;2023-05-10T12:22:45;2.67;;;0.93;;
5869;SDS011;2961;47.702;9.410;2023-05-10T12:25:13;3.03;;;0.80;;
5869;SDS011;2961;47.702;9.410;2023-05-10T12:27:40;5.60;;;1.10;;
5869;SDS011;2961;47.702;9.410;2023-05-10T12:30:07;1.50;;;1.00;;
5869;SDS011;2961;47.702;9.410;2023-05-10T12:32:38;5.73;;;1.20;;
5869;SDS011;2961;47.702;9.410;2023-05-10T12:35:06;2.30;;;1.00;;
5869;SDS011;2961;47.702;9.410;2023-05-10T12:37:34;3.17;;;1.20;;
5869;SDS011;2961;47.702;9.410;2023-05-10T12:40:06;2.20;;;0.70;;
5869;SDS011;2961;47.702;9.410;2023-05-10T12:42:35;1.73;;;0.90;;
5869;SDS011;2961;47.702;9.410;2023-05-10T12:45:02;5.30;;;1.10;;
5869;SDS011;2961;47.702;9.410;2023-05-10T12:47:30;6.43;;;1.10;;
5869;SDS011;2961;47.702;9.410;2023-05-10T12:49:57;2.40;;;0.73;;
5869;SDS011;2961;47.702;9.410;2023-05-10T12:52:24;0.90;;;0.87;;
5869;SDS011;2961;47.702;9.410;2023-05-10T12:54:51;2.60;;;0.80;;
5869;SDS011;2961;47.702;9.410;2023-05-10T12:57:19;2.60;;;0.70;;
5869;SDS011;2961;47.702;9.410;2023-05-10T12:59:46;2.80;;;1.30;;
5869;SDS011;2961;47.702;9.410;2023-05-10T13:02:13;3.13;;;1.33;;
5869;SDS011;2961;47.702;9.410;2023-05-10T13:04:40;3.30;;;1.00;;
5869;SDS011;2961;47.702;9.410;2023-05-10T13:07:07;4.00;;;1.10;;
5869;SDS011;2961;47.702;9.410;2023-05-10T13:09:34;1.60;;;1.10;;
5869;SDS011;2961;47.702;9.410;2023-05-10T13:12:01;5.20;;;0.70;;
5869;SDS011;2961;47.702;9.410;2023-05-10T13:14:30;0.83;;;0.73;;
5869;SDS011;2961;47.702;9.410;2023-05-10T13:16:57;2.90;;;0.90;;
5869;SDS011;2961;47.702;9.410;2023-05-10T13:19:23;2.37;;;1.17;;
5869;SDS011;2961;47.702;9.410;2023-05-10T13:21:50;6.23;;;1.07;;
5869;SDS011;2961;47.702;9.410;2023-05-10T13:24:17;3.80;;;1.03;;
5869;SDS011;2961;47.702;9.410;2023-05-10T13:26:44;1.30;;;1.00;;
5869;SDS011;2961;47.702;9.410;2023-05-10T13:29:10;4.87;;;1.13;;
5869;SDS011;2961;47.702;9.410;2023-05-10T13:31:39;6.03;;;1.53;;
5869;SDS011;2961;47.702;9.410;2023-05-10T13:34:05;2.87;;;1.70;;
5869;SDS011;2961;47.702;9.410;2023-05-10T13:36:32;2.67;;;1.37;;
5869;SDS011;2961;47.702;9.410;2023-05-10T13:38:59;2.35;;;1.20;;
5869;SDS011;2961;47.702;9.410;2023-05-10T13:41:27;3.08;;;1.40;;
5869;SDS011;2961;47.702;9.410;2023-05-10T13:43:54;4.80;;;1.70;;
5869;SDS011;2961;47.702;9.410;2023-05-10T13:46:21;3.03;;;1.20;;
5869;SDS011;2961;47.702;9.410;2023-05-10T13:48:49;3.40;;;1.20;;
5869;SDS011;2961;47.702;9.410;2023-05-10T13:51:16;4.63;;;1.57;;
5869;SDS011;2961;47.702;9.410;2023-05-10T13:53:42;3.27;;;1.47;;
5869;SDS011;2961;47.702;9.410;2023-05-10T13:56:09;1.13;;;1.00;;
5869;SDS011;2961;47.702;9.410;2023-05-10T13:58:36;8.57;;;1.50;;
5869;SDS011;2961;47.702;9.410;2023-05-10T14:01:03;5.40;;;1.20;;
5869;SDS011;2961;47.702;9.410;2023-05-10T14:03:30;1.37;;;0.97;;
5869;SDS011;2961;47.702;9.410;2023-05-10T14:05:58;5.40;;;2.30;;
5869;SDS011;2961;47.702;9.410;2023-05-10T14:08:25;3.03;;;1.23;;
5869;SDS011;2961;47.702;9.410;2023-05-10T14:10:53;5.40;;;1.47;;
5869;SDS011;2961;47.702;9.410;2023-05-10T14:13:21;2.00;;;1.43;;
5869;SDS011;2961;47.702;9.410;2023-05-10T14:15:48;1.80;;;0.90;;
5869;SDS011;2961;47.702;9.410;2023-05-10T14:18:14;3.50;;;1.53;;
5869;SDS011;2961;47.702;9.410;2023-05-10T14:20:41;1.70;;;1.60;;
5869;SDS011;2961;47.702;9.410;2023-05-10T14:23:09;3.80;;;1.30;;
5869;SDS011;2961;47.702;9.410;2023-05-10T14:25:36;4.50;;;1.10;;
5869;SDS011;2961;47.702;9.410;2023-05-10T14:28:03;1.90;;;0.87;;
5869;SDS011;2961;47.702;9.410;2023-05-10T14:30:31;1.20;;;1.00;;
5869;SDS011;2961;47.702;9.410;2023-05-10T14:32:59;3.53;;;0.97;;
5869;SDS011;2961;47.702;9.410;2023-05-10T14:35:26;1.43;;;1.07;;
5869;SDS011;2961;47.702;9.410;2023-05-10T14:37:53;5.03;;;1.10;;
5869;SDS011;2961;47.702;9.410;2023-05-10T14:40:21;2.57;;;1.10;;
5869;SDS011;2961;47.702;9.410;2023-05-10T14:42:48;6.67;;;1.10;;
5869;SDS011;2961;47.702;9.410;2023-05-10T14:45:15;1.00;;;0.87;;
5869;SDS011;2961;47.702;9.410;2023-05-10T14:47:42;4.80;;;1.30;;
5869;SDS011;2961;47.702;9.410;2023-05-10T14:50:09;3.37;;;1.00;;
5869;SDS011;2961;47.702;9.410;2023-05-10T14:52:36;3.27;;;0.80;;
5869;SDS011;2961;47.702;9.410;2023-05-10T14:55:03;2.30;;;1.27;;
5869;SDS011;2961;47.702;9.410;2023-05-10T14:57:32;2.03;;;1.70;;
5869;SDS011;2961;47.702;9.410;2023-05-10T14:59:59;1.53;;;0.93;;
5869;SDS011;2961;47.702;9.410;2023-05-10T15:02:25;6.63;;;0.90;;
5869;SDS011;2961;47.702;9.410;2023-05-10T15:04:52;1.57;;;1.40;;
5869;SDS011;2961;47.702;9.410;2023-05-10T15:07:19;8.80;;;1.43;;
5869;SDS011;2961;47.702;9.410;2023-05-10T15:09:46;1.20;;;1.10;;
5869;SDS011;2961;47.702;9.410;2023-05-10T15:12:13;1.80;;;0.60;;
5869;SDS011;2961;47.702;9.410;2023-05-10T15:14:41;1.70;;;1.20;;
5869;SDS011;2961;47.702;9.410;2023-05-10T15:17:08;4.43;;;1.60;;
5869;SDS011;2961;47.702;9.410;2023-05-10T15:19:35;4.07;;;1.10;;
5869;SDS011;2961;47.702;9.410;2023-05-10T15:22:03;2.30;;;0.90;;
5869;SDS011;2961;47.702;9.410;2023-05-10T15:24:30;1.53;;;1.23;;
5869;SDS011;2961;47.702;9.410;2023-05-10T15:26:57;4.40;;;1.27;;